Time;durP1;ratioP1;P1;durP2;ratioP2;P2;SDS_P1;SDS_P2;PMS_P1;PMS_P2;Temp;Humidity;BMP_temperature;BMP_pressure;BME280_temperature;BME280_humidity;BME280_pressure;Samples;Min_cycle;Max_cycle;Signal;HPM_P1;HPM_P2
2020/12/15 00:00:34;;;;;;;7.70;4.70;;;4.50;99.90;;;5.29;100.00;97599.19;5074450;28;20557;-82
2020/12/15 00:03:02;;;;;;;7.57;5.17;;;4.60;99.90;;;5.34;100.00;97593.50;5074611;28;20484;-81
2020/12/15 00:05:30;;;;;;;9.53;5.30;;;4.70;99.90;;;5.37;100.00;97598.34;5080308;28;20455;-81
2020/12/15 00:07:58;;;;;;;9.43;5.30;;;4.70;99.90;;;5.34;100.00;97596.91;5072758;28;20551;-82
2020/12/15 00:10:40;;;;;;;10.90;5.40;;;4.70;99.90;;;5.29;100.00;97599.19;5073991;28;20517;-81
2020/12/15 00:13:10;;;;;;;10.90;6.00;;;4.60;99.90;;;5.33;100.00;97595.28;5076438;28;20561;-82
2020/12/15 00:15:39;;;;;;;14.33;7.27;;;4.70;99.90;;;5.39;100.00;97597.22;5074530;28;20475;-81
2020/12/15 00:18:07;;;;;;;9.53;6.33;;;4.70;99.90;;;5.44;100.00;97596.72;5077070;28;20516;-81
2020/12/15 00:20:39;;;;;;;12.60;5.50;;;4.80;99.90;;;5.46;100.00;97592.16;5076792;28;20541;-81
2020/12/15 00:23:08;;;;;;;8.80;5.33;;;4.80;99.90;;;5.44;100.00;97594.94;5078672;28;20490;-81
2020/12/15 00:25:36;;;;;;;10.40;4.60;;;4.80;99.90;;;5.46;100.00;97597.34;5078251;28;20452;-81
2020/12/15 00:28:03;;;;;;;11.93;5.90;;;4.80;99.90;;;5.38;100.00;97590.41;5076131;28;20540;-81
2020/12/15 00:30:31;;;;;;;16.23;6.00;;;4.60;99.90;;;5.38;100.00;97595.59;5072081;28;21029;-81
2020/12/15 00:32:59;;;;;;;11.70;5.90;;;4.60;99.90;;;5.41;100.00;97597.88;5077645;28;20470;-81
2020/12/15 00:35:27;;;;;;;9.17;6.17;;;4.70;99.90;;;5.43;100.00;97605.47;5074920;28;21054;-81
2020/12/15 00:37:56;;;;;;;9.83;5.63;;;4.70;99.90;;;5.46;100.00;97595.56;5076302;28;20494;-81
2020/12/15 00:40:23;;;;;;;11.90;5.10;;;4.70;99.90;;;5.46;100.00;97598.16;5073509;28;20517;-81
2020/12/15 00:42:51;;;;;;;11.20;4.80;;;4.80;99.90;;;5.42;100.00;97599.47;5077988;28;20516;-81
2020/12/15 00:45:18;;;;;;;10.10;5.67;;;4.70;99.90;;;5.43;100.00;97595.91;5074319;28;20540;-81
2020/12/15 00:47:46;;;;;;;9.07;5.10;;;4.70;99.90;;;5.43;100.00;97603.69;5072136;28;20459;-81
2020/12/15 00:50:13;;;;;;;9.60;5.27;;;4.70;99.90;;;5.39;100.00;97596.41;5073822;28;20873;-81
2020/12/15 00:52:41;;;;;;;12.10;5.20;;;4.60;99.90;;;5.38;100.00;97594.81;5076158;28;20462;-81
2020/12/15 00:55:10;;;;;;;11.40;6.60;;;4.70;99.90;;;5.39;100.00;97592.03;5077935;28;20524;-81
2020/12/15 00:57:39;;;;;;;12.90;5.80;;;4.60;99.90;;;5.38;100.00;97600.75;5073903;28;21080;-81
2020/12/15 01:00:10;;;;;;;8.70;5.40;;;4.60;99.90;;;5.41;100.00;97595.28;5074458;28;20464;-81
2020/12/15 01:02:39;;;;;;;9.07;5.40;;;4.70;99.90;;;5.40;100.00;97583.28;5075215;28;20467;-81
2020/12/15 01:05:07;;;;;;;11.03;5.10;;;4.70;99.90;;;5.44;100.00;97594.94;5075328;28;20480;-81
2020/12/15 01:07:34;;;;;;;8.60;5.30;;;4.70;99.90;;;5.40;100.00;97598.03;5074862;28;20471;-81
2020/12/15 01:10:02;;;;;;;9.87;5.63;;;4.70;99.90;;;5.45;100.00;97593.94;5077416;28;20463;-81
2020/12/15 01:12:31;;;;;;;6.10;4.70;;;4.70;99.90;;;5.50;100.00;97596.88;5074660;28;21081;-81
2020/12/15 01:14:58;;;;;;;9.90;5.50;;;4.80;99.90;;;5.49;100.00;97592.66;5075455;28;20846;-81
2020/12/15 01:17:26;;;;;;;9.03;4.67;;;4.80;99.90;;;5.48;100.00;97588.44;5074384;28;20456;-81
2020/12/15 01:19:54;;;;;;;9.20;5.13;;;4.80;99.90;;;5.49;100.00;97587.47;5075158;28;20546;-81
2020/12/15 01:22:22;;;;;;;12.63;5.30;;;4.70;99.90;;;5.50;100.00;97586.50;5068575;28;20501;-81
2020/12/15 01:24:49;;;;;;;6.47;4.20;;;4.80;99.90;;;5.53;100.00;97588.75;5076357;28;20553;-81
2020/12/15 01:27:17;;;;;;;8.00;5.27;;;4.80;99.90;;;5.58;100.00;97589.06;5076264;28;20479;-81
2020/12/15 01:29:45;;;;;;;11.27;5.70;;;4.80;99.90;;;5.58;100.00;97583.88;5073871;28;20512;-80
2020/12/15 01:32:13;;;;;;;6.33;4.70;;;4.80;99.90;;;5.55;100.00;97581.59;5075183;28;21026;-81
2020/12/15 01:34:40;;;;;;;10.87;4.67;;;4.90;99.90;;;5.56;100.00;97577.22;5076946;28;21026;-81
2020/12/15 01:37:08;;;;;;;5.20;3.83;;;4.80;99.90;;;5.57;100.00;97578.84;5070485;28;20479;-81
2020/12/15 01:39:36;;;;;;;9.33;5.20;;;4.90;99.90;;;5.56;100.00;97574.63;5073876;28;20460;-81
2020/12/15 01:42:07;;;;;;;11.43;5.27;;;4.90;99.90;;;5.59;100.00;97571.69;5073891;28;20453;-81
2020/12/15 01:44:35;;;;;;;7.03;4.20;;;4.90;99.90;;;5.61;100.00;97569.78;5074591;28;21018;-80
2020/12/15 01:47:04;;;;;;;10.77;5.13;;;4.90;99.90;;;5.57;100.00;97569.28;5073443;28;20885;-81
2020/12/15 01:49:32;;;;;;;8.50;4.40;;;4.90;99.90;;;5.65;100.00;97572.84;5071773;28;20975;-81
2020/12/15 01:52:00;;;;;;;5.57;4.10;;;4.90;99.90;;;5.61;100.00;97576.75;5074393;28;20470;-81
2020/12/15 01:54:29;;;;;;;7.90;5.00;;;4.90;99.90;;;5.63;100.00;97578.19;5070443;28;20817;-81
2020/12/15 01:56:56;;;;;;;7.47;4.20;;;4.90;99.90;;;5.63;100.00;97577.38;5069541;28;20488;-81
2020/12/15 01:59:24;;;;;;;7.20;4.57;;;4.90;99.90;;;5.67;100.00;97568.28;5077489;28;20463;-81
2020/12/15 02:01:51;;;;;;;8.17;5.20;;;4.90;99.90;;;5.71;100.00;97566.97;5075333;28;20463;-81
2020/12/15 02:04:20;;;;;;;6.93;4.63;;;5.00;99.90;;;5.73;100.00;97570.19;5074742;28;20498;-81
2020/12/15 02:06:50;;;;;;;6.30;4.10;;;5.00;99.90;;;5.75;100.00;97565.66;5072233;28;20923;-81
2020/12/15 02:09:19;;;;;;;8.43;4.23;;;5.00;99.90;;;5.66;100.00;97577.06;5073259;28;21029;-81
2020/12/15 02:11:49;;;;;;;4.40;3.37;;;4.90;99.90;;;5.63;100.00;97569.59;5072673;28;20463;-81
2020/12/15 02:14:16;;;;;;;8.57;4.50;;;4.90;99.90;;;5.68;100.00;97569.91;5075468;28;20460;-81
2020/12/15 02:16:51;;;;;;;8.13;4.63;;;4.90;99.90;;;5.69;100.00;97576.72;5075231;28;20468;-81
2020/12/15 02:19:20;;;;;;;6.00;4.07;;;5.00;99.90;;;5.73;100.00;97572.78;5074340;28;20463;-81
2020/12/15 02:21:51;;;;;;;7.30;4.20;;;5.00;99.90;;;5.78;100.00;97565.31;5077918;28;20447;-81
2020/12/15 02:24:19;;;;;;;4.10;3.70;;;5.10;99.90;;;5.82;100.00;97574.38;5071517;28;20502;-81
2020/12/15 02:26:47;;;;;;;8.93;4.73;;;5.10;99.90;;;5.81;100.00;97570.16;5071893;28;20538;-81
2020/12/15 02:29:15;;;;;;;5.93;4.07;;;5.10;99.90;;;5.85;100.00;97576.63;5075160;28;20460;-81
2020/12/15 02:31:43;;;;;;;5.63;4.37;;;5.10;99.90;;;5.84;100.00;97565.44;5072312;28;20831;-81
2020/12/15 02:34:11;;;;;;;8.93;5.03;;;5.10;99.90;;;5.84;100.00;97569.81;5073212;28;20470;-81
2020/12/15 02:36:40;;;;;;;7.17;3.80;;;5.10;99.90;;;5.86;100.00;97567.91;5067659;28;20555;-81
2020/12/15 02:39:10;;;;;;;6.00;3.93;;;5.10;99.90;;;5.89;100.00;97558.00;5073751;28;21057;-82
2020/12/15 02:41:39;;;;;;;8.40;3.97;;;5.10;99.90;;;5.80;100.00;97558.16;5070479;28;20464;-81
2020/12/15 02:44:09;;;;;;;6.20;3.87;;;5.00;99.90;;;5.75;100.00;97555.28;5077125;28;20501;-81
2020/12/15 02:46:37;;;;;;;5.10;3.63;;;5.00;99.90;;;5.80;100.00;97553.78;5070812;28;21076;-81
2020/12/15 02:49:05;;;;;;;7.33;4.53;;;5.00;99.90;;;5.83;100.00;97552.66;5073391;28;20551;-81
2020/12/15 02:51:32;;;;;;;7.57;4.20;;;5.10;99.90;;;5.83;100.00;97556.03;5072977;28;20463;-81
2020/12/15 02:54:00;;;;;;;6.90;3.80;;;5.10;99.90;;;5.84;100.00;97543.88;5074906;28;20991;-81
2020/12/15 02:56:28;;;;;;;5.67;4.00;;;5.10;99.90;;;5.89;100.00;97549.41;5074357;28;20480;-81
2020/12/15 02:58:55;;;;;;;5.97;4.03;;;5.20;99.90;;;5.91;100.00;97542.25;5072806;28;20467;-81
2020/12/15 03:01:23;;;;;;;10.83;4.17;;;5.20;99.90;;;5.94;100.00;97544.50;5072257;28;20513;-81
2020/12/15 03:03:51;;;;;;;7.63;4.23;;;5.20;99.90;;;5.93;100.00;97543.72;5072905;28;20504;-81
2020/12/15 03:06:19;;;;;;;12.23;4.00;;;5.20;99.90;;;5.94;100.00;97545.31;5075496;28;20464;-81
2020/12/15 03:08:46;;;;;;;6.30;3.57;;;5.20;99.90;;;5.98;100.00;97540.59;5069808;28;20475;-81
2020/12/15 03:11:14;;;;;;;6.67;4.20;;;5.20;99.90;;;6.00;100.00;97538.66;5073237;28;20521;-81
2020/12/15 03:13:42;;;;;;;8.50;4.00;;;5.30;99.90;;;6.02;100.00;97536.69;5076778;28;20467;-81
2020/12/15 03:16:10;;;;;;;5.27;3.40;;;5.30;99.90;;;6.01;100.00;97543.66;5075379;28;20532;-81
2020/12/15 03:18:37;;;;;;;8.10;4.43;;;5.30;99.90;;;6.04;100.00;97545.91;5077670;28;20448;-80
2020/12/15 03:21:07;;;;;;;4.77;3.43;;;5.30;99.90;;;6.04;100.00;97543.31;5072514;28;20460;-81
2020/12/15 03:23:35;;;;;;;7.20;4.00;;;5.30;99.90;;;5.99;100.00;97542.22;5071563;28;20948;-81
2020/12/15 03:26:03;;;;;;;6.53;4.03;;;5.30;99.90;;;5.98;100.00;97543.19;5073693;28;20977;-81
2020/12/15 03:28:30;;;;;;;5.90;3.53;;;5.30;99.90;;;5.94;100.00;97541.91;5071080;28;21235;-81
2020/12/15 03:30:59;;;;;;;6.00;4.20;;;5.20;99.90;;;5.99;100.00;97543.03;5074759;28;20455;-81
2020/12/15 03:33:27;;;;;;;11.00;3.70;;;5.20;99.90;;;6.06;100.00;97543.97;5070613;28;20464;-80
2020/12/15 03:35:54;;;;;;;9.13;3.80;;;5.30;99.90;;;6.09;100.00;97537.63;5075056;28;20847;-81
2020/12/15 03:38:22;;;;;;;5.17;3.73;;;5.40;99.90;;;6.08;100.00;97536.81;5071325;28;20487;-81
2020/12/15 03:40:49;;;;;;;5.47;3.50;;;5.40;99.90;;;6.08;100.00;97536.00;5074550;28;20472;-81
2020/12/15 03:43:17;;;;;;;9.30;3.33;;;5.30;99.90;;;6.09;100.00;97542.81;5069589;28;20453;-81
2020/12/15 03:45:45;;;;;;;4.67;3.30;;;5.30;99.90;;;6.12;100.00;97532.09;5072196;28;20468;-81
2020/12/15 03:48:15;;;;;;;5.13;3.00;;;5.40;99.90;;;6.13;100.00;97531.13;5072775;28;20471;-81
2020/12/15 03:50:42;;;;;;;3.80;3.10;;;5.40;99.90;;;6.15;100.00;97530.94;5072645;28;20485;-81
2020/12/15 03:53:10;;;;;;;5.07;3.40;;;5.50;99.90;;;6.17;100.00;97532.41;5073363;28;20524;-81
2020/12/15 03:55:37;;;;;;;6.70;3.70;;;5.40;99.90;;;6.18;100.00;97531.41;5072382;28;20495;-81
2020/12/15 03:58:05;;;;;;;6.90;4.33;;;5.40;99.90;;;6.22;100.00;97527.47;5071127;28;20463;-81
2020/12/15 04:00:32;;;;;;;8.03;4.10;;;5.50;99.90;;;6.24;100.00;97532.50;5071496;28;20486;-81
2020/12/15 04:03:00;;;;;;;11.60;4.07;;;5.50;99.90;;;6.24;100.00;97522.94;5074071;28;20497;-81
2020/12/15 04:05:28;;;;;;;8.90;4.40;;;5.50;99.90;;;6.23;100.00;97520.50;5073833;28;21016;-81
2020/12/15 04:07:56;;;;;;;7.63;3.63;;;5.50;99.90;;;6.24;100.00;97522.13;5068335;28;20463;-81
2020/12/15 04:10:23;;;;;;;7.93;4.67;;;5.50;99.90;;;6.25;100.00;97521.16;5076188;28;20485;-81
2020/12/15 04:12:53;;;;;;;9.40;4.23;;;5.50;99.90;;;6.25;100.00;97518.56;5074970;28;20467;-81
2020/12/15 04:15:21;;;;;;;5.00;3.50;;;5.50;99.90;;;6.27;100.00;97514.81;5069504;28;20571;-81
2020/12/15 04:17:48;;;;;;;4.80;3.50;;;5.50;99.90;;;6.27;100.00;97520.00;5072759;28;20467;-81
2020/12/15 04:28:29;;;;;;;8.13;4.00;;;5.60;99.90;;;6.31;100.00;97516.06;5064269;28;20526;-81
2020/12/15 04:30:57;;;;;;;10.50;4.20;;;5.60;99.90;;;6.30;100.00;97521.44;5071723;28;20460;-81
2020/12/15 04:33:24;;;;;;;6.80;4.40;;;5.60;99.90;;;6.31;100.00;97518.69;5072658;28;20459;-81
2020/12/15 04:35:52;;;;;;;6.53;4.00;;;5.60;99.90;;;6.33;100.00;97528.88;5071557;28;20459;-82
2020/12/15 04:38:19;;;;;;;5.53;4.20;;;5.60;99.90;;;6.32;100.00;97522.88;5070768;28;20482;-81
2020/12/15 04:40:47;;;;;;;6.23;4.03;;;5.60;99.90;;;6.33;100.00;97521.91;5070511;28;20467;-81
2020/12/15 04:43:16;;;;;;;9.87;4.70;;;5.60;99.90;;;6.36;100.00;97512.94;5074532;28;20472;-81
2020/12/15 04:45:46;;;;;;;9.23;4.77;;;5.60;99.90;;;6.38;100.00;97527.38;5071547;28;20943;-81
2020/12/15 04:48:23;;;;;;;15.43;4.50;;;5.60;99.90;;;6.38;100.00;97524.78;5070032;28;20468;-81
2020/12/15 04:50:59;;;;;;;7.30;4.20;;;5.60;99.90;;;6.39;100.00;97534.19;5074406;28;20460;-81
2020/12/15 04:53:28;;;;;;;9.13;4.97;;;5.70;99.90;;;6.39;100.00;97518.59;5072577;28;20567;-81
2020/12/15 04:55:57;;;;;;;6.00;4.37;;;5.60;99.90;;;6.41;100.00;97521.03;5076919;28;20508;-81
2020/12/15 04:58:25;;;;;;;6.93;4.50;;;5.70;99.90;;;6.42;100.00;97518.25;5076388;28;20456;-81
2020/12/15 05:00:53;;;;;;;8.77;5.17;;;5.60;99.90;;;6.43;100.00;97524.25;5073821;28;20468;-82
2020/12/15 05:03:22;;;;;;;7.10;4.43;;;5.70;99.90;;;6.43;100.00;97529.44;5076331;28;20464;-81
2020/12/15 05:05:51;;;;;;;7.60;4.90;;;5.70;99.90;;;6.42;100.00;97527.84;5071658;28;20859;-81
2020/12/15 05:08:18;;;;;;;7.60;5.10;;;5.70;99.90;;;6.42;100.00;97535.63;5074145;28;20491;-81
2020/12/15 05:10:46;;;;;;;6.07;3.80;;;5.70;99.90;;;6.44;100.00;97525.88;5074714;28;20486;-81
2020/12/15 05:13:23;;;;;;;8.97;4.83;;;5.80;99.90;;;6.42;100.00;97528.63;5078589;28;20439;-81
2020/12/15 05:15:57;;;;;;;8.20;4.77;;;5.70;99.90;;;6.42;100.00;97518.25;5074564;28;20999;-82
2020/12/15 05:18:25;;;;;;;10.97;6.00;;;5.70;99.90;;;6.44;100.00;97516.31;5074697;28;20482;-81
2020/12/15 05:20:52;;;;;;;9.13;5.60;;;5.80;99.90;;;6.40;100.00;97520.22;5073229;28;20455;-82
2020/12/15 05:23:20;;;;;;;8.80;5.33;;;5.70;99.90;;;6.40;100.00;97525.41;5073582;28;20831;-81
2020/12/15 05:26:02;;;;;;;9.70;6.20;;;5.70;99.90;;;6.41;100.00;97519.25;5073313;28;20508;-82
2020/12/15 05:28:29;;;;;;;11.03;5.97;;;5.70;99.90;;;6.43;100.00;97519.06;5073691;28;20486;-81
2020/12/15 05:31:01;;;;;;;19.10;6.47;;;5.70;99.90;;;6.43;100.00;97511.28;5073276;28;20487;-81
2020/12/15 05:33:30;;;;;;;8.30;5.40;;;5.80;99.90;;;6.41;100.00;97516.66;5076171;28;20476;-81
2020/12/15 05:35:58;;;;;;;9.90;5.90;;;5.70;99.90;;;6.42;100.00;97507.06;5074473;28;20469;-81
2020/12/15 05:38:25;;;;;;;16.20;6.50;;;5.80;99.90;;;6.40;100.00;97507.25;5073189;28;20472;-81
2020/12/15 05:40:55;;;;;;;9.57;5.50;;;5.70;99.90;;;6.45;100.00;97511.91;5076728;28;20463;-81
2020/12/15 05:43:40;;;;;;;8.83;5.50;;;5.70;99.90;;;6.42;100.00;97507.06;5074365;28;20483;-81
2020/12/15 05:46:10;;;;;;;9.33;5.90;;;5.70;99.90;;;6.42;100.00;97502.66;5075662;28;20880;-81
2020/12/15 05:48:39;;;;;;;9.07;5.30;;;5.80;99.90;;;6.43;100.00;97504.28;5074284;28;20502;-82
2020/12/15 05:51:07;;;;;;;11.63;6.10;;;5.80;99.90;;;6.44;100.00;97502.50;5073185;28;20459;-81
2020/12/15 05:53:34;;;;;;;9.20;5.70;;;5.80;99.90;;;6.43;100.00;97508.66;5072379;28;20464;-81
2020/12/15 05:56:06;;;;;;;8.37;5.90;;;5.70;99.90;;;6.46;100.00;97513.50;5072117;28;21011;-81
2020/12/15 05:58:34;;;;;;;15.60;5.83;;;5.70;99.90;;;6.44;100.00;97521.50;5072398;28;20457;-81
2020/12/15 06:01:10;;;;;;;8.80;6.70;;;5.70;99.90;;;6.46;100.00;97523.91;5074554;28;20821;-81
2020/12/15 06:03:41;;;;;;;22.53;7.80;;;5.80;99.90;;;6.43;100.00;97519.88;5074525;28;21012;-81
2020/12/15 06:06:08;;;;;;;12.57;6.97;;;5.80;99.90;;;6.45;100.00;97517.94;5069595;28;20842;-81
2020/12/15 06:08:42;;;;;;;10.93;6.07;;;5.80;99.90;;;6.45;100.00;97522.31;5073024;28;20588;-81
2020/12/15 06:11:15;;;;;;;9.93;5.60;;;5.80;99.90;;;6.45;100.00;97515.31;5077078;28;20484;-81
2020/12/15 06:13:53;;;;;;;8.67;6.23;;;5.80;99.90;;;6.43;100.00;97514.69;5075905;28;20487;-81
2020/12/15 06:16:22;;;;;;;13.60;7.00;;;5.80;99.90;;;6.45;100.00;97507.53;5075550;28;20472;-81
2020/12/15 06:18:50;;;;;;;10.73;7.03;;;5.80;99.90;;;6.45;100.00;97507.53;5073954;28;20456;-81
2020/12/15 06:21:19;;;;;;;12.07;6.90;;;5.70;99.90;;;6.46;100.00;97508.31;5073417;28;20468;-82
2020/12/15 06:23:46;;;;;;;11.07;6.83;;;5.70;99.90;;;6.42;100.00;97502.66;5072438;28;20463;-81
2020/12/15 06:26:24;;;;;;;7.47;5.77;;;5.70;99.90;;;6.42;100.00;97505.25;5068661;28;21034;-81
2020/12/15 06:29:02;;;;;;;10.50;6.97;;;5.80;99.90;;;6.38;100.00;97501.44;5073397;28;20647;-81
2020/12/15 06:31:32;;;;;;;13.50;6.13;;;5.60;99.90;;;6.41;100.00;97500.25;5072389;28;20455;-83
2020/12/15 06:34:02;;;;;;;12.67;6.67;;;5.70;99.90;;;6.38;100.00;97493.63;5074697;28;20994;-81
2020/12/15 06:36:33;;;;;;;12.50;5.93;;;5.70;99.90;;;6.36;100.00;97492.97;5077587;28;20475;-81
2020/12/15 06:39:13;;;;;;;11.77;5.90;;;5.60;99.90;;;6.34;100.00;97488.94;5077573;28;20527;-81
2020/12/15 06:41:41;;;;;;;9.17;6.03;;;5.60;99.90;;;6.33;100.00;97493.34;5076480;28;20502;-81
2020/12/15 06:44:11;;;;;;;11.03;6.60;;;5.60;99.90;;;6.30;100.00;97488.50;5077501;28;20586;-81
2020/12/15 06:46:40;;;;;;;13.33;6.83;;;5.50;99.90;;;6.36;100.00;97497.38;5077087;28;20432;-81
2020/12/15 06:49:10;;;;;;;13.27;6.87;;;5.60;99.90;;;6.37;100.00;97505.00;5076811;28;21127;-81
2020/12/15 06:51:37;;;;;;;13.67;6.93;;;5.60;99.90;;;6.39;100.00;97503.00;5076584;28;20444;-81
2020/12/15 06:54:06;;;;;;;8.97;6.23;;;5.70;99.90;;;6.43;100.00;97506.88;5075724;28;20439;-81
2020/12/15 06:56:37;;;;;;;13.27;6.73;;;5.80;99.90;;;6.45;100.00;97504.94;5075281;28;20568;-81
2020/12/15 06:59:07;;;;;;;23.00;6.23;;;5.80;99.90;;;6.48;100.00;97499.41;5073449;28;20443;-81
2020/12/15 07:01:34;;;;;;;8.00;6.47;;;5.80;99.90;;;6.53;100.00;97499.66;5073500;28;20443;-81
2020/12/15 07:04:03;;;;;;;12.57;6.60;;;5.80;99.90;;;6.50;100.00;97500.00;5076165;28;20794;-82
2020/12/15 07:06:31;;;;;;;10.93;7.40;;;5.80;99.90;;;6.52;100.00;97494.66;5075981;28;20874;-81
2020/12/15 07:09:06;;;;;;;12.57;7.80;;;5.80;99.90;;;6.53;100.00;97504.03;5074666;28;20463;-81
2020/12/15 07:11:34;;;;;;;20.23;11.60;;;5.80;99.90;;;6.54;100.00;97508.25;5071225;28;20465;-81
2020/12/15 07:14:05;;;;;;;20.37;11.30;;;5.90;99.90;;;6.53;100.00;97509.25;5072276;28;20467;-81
2020/12/15 07:16:33;;;;;;;14.37;8.60;;;5.80;99.90;;;6.58;100.00;97512.13;5077177;28;20449;-81
2020/12/15 07:19:02;;;;;;;12.07;7.50;;;5.90;99.90;;;6.59;100.00;97517.13;5076201;28;20471;-81
2020/12/15 07:21:31;;;;;;;12.50;8.67;;;6.00;99.90;;;6.60;100.00;97512.75;5072651;28;20455;-81
2020/12/15 07:24:01;;;;;;;14.50;7.40;;;6.00;99.90;;;6.61;100.00;97516.97;5074763;28;20452;-81
2020/12/15 07:26:30;;;;;;;11.20;6.93;;;6.00;99.90;;;6.59;100.00;97522.34;5074864;28;20956;-81
2020/12/15 07:28:57;;;;;;;17.13;8.63;;;5.90;99.90;;;6.49;100.00;97521.75;5075565;28;20549;-80
2020/12/15 07:31:30;;;;;;;9.70;6.87;;;5.80;99.90;;;6.48;100.00;97527.97;5076032;28;20452;-81
2020/12/15 07:34:10;;;;;;;13.40;7.53;;;5.70;99.90;;;6.49;100.00;97528.78;5077108;28;20439;-81
2020/12/15 07:36:42;;;;;;;16.00;7.90;;;5.70;99.90;;;6.53;100.00;97530.00;5071763;28;20467;-81
2020/12/15 07:39:10;;;;;;;15.90;8.57;;;5.80;99.90;;;6.55;100.00;97528.06;5072456;28;20819;-81
2020/12/15 07:41:39;;;;;;;12.87;8.17;;;5.90;99.90;;;6.55;100.00;97534.06;5076297;28;20452;-81
2020/12/15 07:44:10;;;;;;;17.60;8.83;;;5.80;99.90;;;6.57;100.00;97539.06;5073133;28;20953;-81
2020/12/15 07:46:45;;;;;;;19.70;9.90;;;5.80;99.90;;;6.57;100.00;97539.06;5075454;28;20855;-81
2020/12/15 07:49:14;;;;;;;20.33;10.23;;;5.80;99.90;;;6.54;100.00;97536.84;5074411;28;20911;-80
2020/12/15 07:51:43;;;;;;;49.20;22.60;;;5.90;99.90;;;6.52;100.00;97547.41;5076108;28;20439;-81
2020/12/15 07:54:11;;;;;;;20.47;12.07;;;5.80;99.90;;;6.54;100.00;97553.22;5075670;28;20460;-81
2020/12/15 07:56:39;;;;;;;25.13;12.40;;;5.90;99.90;;;6.59;100.00;97555.31;5076211;28;20862;-81
2020/12/15 07:59:12;;;;;;;25.03;12.93;;;5.90;99.90;;;6.61;100.00;97550.75;5074966;28;20823;-81
2020/12/15 08:01:40;;;;;;;17.20;10.90;;;6.00;99.90;;;6.63;100.00;97550.59;5076679;28;20444;-81
2020/12/15 08:04:10;;;;;;;17.20;10.77;;;6.00;99.90;;;6.66;100.00;97550.22;5074926;28;20497;-81
2020/12/15 08:06:42;;;;;;;19.40;11.07;;;6.00;99.90;;;6.68;100.00;97545.66;5074219;28;20448;-81
2020/12/15 08:09:13;;;;;;;14.00;9.40;;;6.00;99.90;;;6.71;100.00;97540.91;5077155;28;20454;-81
2020/12/15 08:11:45;;;;;;;14.27;10.30;;;6.00;99.90;;;6.70;100.00;97541.88;5075061;28;20463;-81
2020/12/15 08:14:15;;;;;;;21.20;10.57;;;6.00;99.90;;;6.69;100.00;97539.47;5074684;28;20866;-81
2020/12/15 08:16:44;;;;;;;17.80;9.30;;;6.10;99.90;;;6.70;100.00;97552.28;5072732;28;20476;-81
2020/12/15 08:19:13;;;;;;;26.90;10.00;;;6.00;99.90;;;6.73;100.00;97548.56;5071084;28;20464;-81
2020/12/15 08:21:48;;;;;;;14.90;9.20;;;6.10;99.90;;;6.76;100.00;97553.38;5073354;28;20472;-81
2020/12/15 08:24:21;;;;;;;11.07;8.60;;;6.10;99.90;;;6.78;100.00;97554.00;5075656;28;20546;-81
2020/12/15 08:26:49;;;;;;;20.10;10.53;;;6.10;99.90;;;6.82;100.00;97573.47;5074151;28;20876;-82
2020/12/15 08:29:17;;;;;;;15.07;9.13;;;6.10;99.90;;;6.84;100.00;97568.91;5071189;28;21072;-81
2020/12/15 08:31:45;;;;;;;19.73;9.60;;;6.20;99.90;;;6.82;100.00;97563.88;5075398;28;20516;-81
2020/12/15 08:34:16;;;;;;;16.30;8.83;;;6.10;99.90;;;6.85;100.00;97573.94;5075655;28;20475;-81
2020/12/15 08:36:48;;;;;;;15.17;8.90;;;6.10;99.90;;;6.85;100.00;97575.72;5078347;28;20510;-81
2020/12/15 08:39:20;;;;;;;12.87;9.27;;;6.20;99.90;;;6.90;100.00;97582.03;5078111;28;20449;-82
2020/12/15 08:41:50;;;;;;;18.17;10.10;;;6.20;99.90;;;6.90;100.00;97582.03;5077452;28;20855;-81
2020/12/15 08:44:19;;;;;;;18.23;9.90;;;6.30;99.90;;;6.95;100.00;97590.09;5076876;28;20506;-81
2020/12/15 08:46:49;;;;;;;14.93;10.17;;;6.30;99.90;;;6.98;100.00;97591.50;5074834;28;21084;-81
2020/12/15 08:49:22;;;;;;;15.17;9.83;;;6.30;99.90;;;7.01;100.00;97586.00;5076435;28;20558;-81
2020/12/15 08:51:52;;;;;;;18.13;10.03;;;6.40;99.90;;;7.02;100.00;97587.59;5074436;28;20447;-82
2020/12/15 08:54:21;;;;;;;16.00;8.90;;;6.40;99.90;;;7.06;100.00;97583.66;5078994;28;20870;-82
2020/12/15 08:56:49;;;;;;;16.10;9.60;;;6.50;99.90;;;7.07;100.00;97582.69;5075066;28;20467;-81
2020/12/15 08:59:20;;;;;;;19.93;10.57;;;6.40;99.90;;;7.10;100.00;97574.53;5077002;28;20803;-81
2020/12/15 09:01:57;;;;;;;17.53;10.63;;;6.50;99.90;;;7.14;100.00;97581.00;5080240;28;20443;-82
2020/12/15 09:04:27;;;;;;;15.30;9.80;;;6.50;99.90;;;7.16;100.00;97568.63;5080205;28;20542;-82
2020/12/15 09:06:57;;;;;;;17.00;9.60;;;6.50;99.90;;;7.19;100.00;97573.47;5077997;28;20452;-82
2020/12/15 09:09:28;;;;;;;14.57;9.70;;;6.50;99.90;;;7.24;100.00;97580.72;5076184;28;20455;-81
2020/12/15 09:11:57;;;;;;;18.40;10.00;;;6.60;99.90;;;7.25;100.00;97587.56;5079273;28;20447;-81
2020/12/15 09:14:24;;;;;;;15.40;9.70;;;6.60;99.90;;;7.28;100.00;97593.22;5076264;28;20504;-82
2020/12/15 09:16:52;;;;;;;13.17;8.97;;;6.60;99.90;;;7.30;100.00;97593.84;5072024;28;20549;-82
2020/12/15 09:19:22;;;;;;;13.03;8.90;;;6.70;99.90;;;7.33;100.00;97590.06;5074526;28;20996;-81
2020/12/15 09:21:59;;;;;;;20.17;10.47;;;6.60;99.90;;;7.35;100.00;97599.31;5073918;28;20859;-82
2020/12/15 09:24:28;;;;;;;17.27;9.93;;;6.70;99.90;;;7.39;100.00;97604.97;5077549;28;20462;-82
2020/12/15 09:26:57;;;;;;;20.90;9.80;;;6.70;99.90;;;7.41;100.00;97598.59;5078256;28;20448;-82
2020/12/15 09:29:27;;;;;;;16.10;9.67;;;6.70;99.90;;;7.43;100.00;97595.81;5077351;28;20842;-82
2020/12/15 09:32:03;;;;;;;19.07;10.10;;;6.80;99.90;;;7.45;100.00;97599.88;5074659;28;20455;-82
2020/12/15 09:34:31;;;;;;;18.80;10.10;;;6.80;99.90;;;7.47;100.00;97599.66;5076398;28;20463;-82
2020/12/15 09:37:02;;;;;;;14.70;9.93;;;6.80;99.90;;;7.49;100.00;97598.53;5079047;28;20479;-84
2020/12/15 09:39:32;;;;;;;16.77;10.47;;;6.80;99.90;;;7.52;100.00;97602.56;5072771;28;20460;-82
2020/12/15 09:42:20;;;;;;;15.83;9.97;;;6.90;99.90;;;7.55;100.00;97600.41;5077413;28;20444;-81
2020/12/15 09:44:48;;;;;;;19.23;10.47;;;6.90;99.90;;;7.57;100.00;97606.22;5021892;28;20581;-81
2020/12/15 09:47:16;;;;;;;18.53;11.67;;;7.00;99.90;;;7.60;100.00;97602.47;5002363;28;20497;-82
2020/12/15 09:49:44;;;;;;;17.30;10.07;;;7.00;99.90;;;7.63;100.00;97604.72;4996957;28;20497;-81
2020/12/15 09:52:13;;;;;;;15.73;10.07;;;7.00;99.90;;;7.66;100.00;97608.75;4995553;28;20961;-81
2020/12/15 09:54:41;;;;;;;18.47;10.80;;;7.00;99.90;;;7.67;100.00;97612.97;4996254;28;21001;-81
2020/12/15 09:57:09;;;;;;;15.20;9.60;;;7.00;99.90;;;7.70;100.00;97605.63;4996903;28;20491;-81
2020/12/15 09:59:37;;;;;;;19.70;10.70;;;7.00;99.90;;;7.73;100.00;97612.25;4994925;28;20467;-81
2020/12/15 10:02:05;;;;;;;18.80;11.40;;;7.10;99.90;;;7.74;100.00;97613.88;4996230;28;20471;-82
2020/12/15 10:04:33;;;;;;;18.97;11.57;;;7.10;99.90;;;7.76;100.00;97611.88;4997958;28;20553;-82
2020/12/15 10:07:02;;;;;;;17.83;9.23;;;7.10;99.90;;;7.78;100.00;97615.91;4997882;28;20466;-82
2020/12/15 10:09:31;;;;;;;17.07;9.73;;;7.10;99.90;;;7.80;100.00;97613.16;4996913;28;20546;-82
2020/12/15 10:11:59;;;;;;;18.13;10.00;;;7.20;99.90;;;7.82;100.00;97618.97;4996078;28;20510;-83
2020/12/15 10:14:26;;;;;;;18.90;9.40;;;7.20;99.90;;;7.83;100.00;97612.78;4996665;28;20891;-81
2020/12/15 10:16:55;;;;;;;16.00;9.30;;;7.20;99.90;;;7.85;100.00;97616.81;4998923;28;20462;-82
2020/12/15 10:19:23;;;;;;;17.17;8.80;;;7.20;99.90;;;7.87;100.00;97619.25;5000927;28;20928;-81
2020/12/15 10:21:54;;;;;;;17.43;9.30;;;7.20;99.90;;;7.91;100.00;97620.50;4997273;28;20464;-82
2020/12/15 10:24:22;;;;;;;16.87;9.93;;;7.30;99.90;;;7.93;100.00;97618.53;4999907;28;21296;-82
2020/12/15 10:26:53;;;;;;;18.60;9.07;;;7.30;99.90;;;7.97;100.00;97617.19;4994356;28;21364;-82
2020/12/15 10:29:23;;;;;;;15.77;9.10;;;7.40;99.90;;;7.99;100.00;97615.19;4995271;28;21013;-83
2020/12/15 10:31:51;;;;;;;14.57;8.07;;;7.40;99.90;;;7.99;100.00;97621.22;4995675;28;21022;-82
2020/12/15 10:34:18;;;;;;;14.57;9.90;;;7.40;99.90;;;8.03;100.00;97619.88;4998551;28;20523;-82
2020/12/15 10:36:47;;;;;;;13.60;9.10;;;7.40;99.90;;;8.07;100.00;97622.91;4998096;28;20480;-82